Time;durP1;ratioP1;P1;durP2;ratioP2;P2;SDS_P1;SDS_P2;PMS_P1;PMS_P2;Temp;Humidity;BMP_temperature;BMP_pressure;BME280_temperature;BME280_humidity;BME280_pressure;Samples;Min_cycle;Max_cycle;Signal;HPM_P1;HPM_P2
2021/04/29 00:01:25;;;;;;;18.08;11.43;;;282.20;2278.40;;;;;;5050161;28;20123;-76
2021/04/29 00:03:51;;;;;;;17.92;12.40;;;282.10;2278.40;;;;;;5057338;28;20078;-77
2021/04/29 00:06:16;;;;;;;18.23;12.30;;;282.10;2278.40;;;;;;5051716;28;20025;-77
2021/04/29 00:08:42;;;;;;;19.70;12.48;;;282.10;2278.40;;;;;;5054076;28;20087;-77
2021/04/29 00:11:09;;;;;;;17.05;11.00;;;282.10;2278.40;;;;;;5051509;28;20158;-77
2021/04/29 00:13:36;;;;;;;17.05;11.13;;;282.00;2278.40;;;;;;5055755;28;20029;-78
2021/04/29 00:16:02;;;;;;;16.73;11.68;;;282.00;2278.40;;;;;;5053091;28;20104;-78
2021/04/29 00:18:28;;;;;;;16.85;11.30;;;282.00;2278.40;;;;;;5053481;28;20489;-78
2021/04/29 00:20:57;;;;;;;16.30;10.15;;;282.00;2278.40;;;;;;5052536;28;20021;-77
2021/04/29 00:23:24;;;;;;;17.48;11.93;;;282.00;2278.40;;;;;;5051927;28;20406;-77
2021/04/29 00:25:49;;;;;;;16.63;10.65;;;282.00;2278.40;;;;;;5055639;28;20411;-78
2021/04/29 00:28:15;;;;;;;13.18;10.40;;;281.90;2278.40;;;;;;5055403;28;20040;-78
2021/04/29 00:30:41;;;;;;;19.17;10.63;;;281.90;2278.40;;;;;;5039856;28;20044;-78
2021/04/29 00:33:07;;;;;;;14.65;10.75;;;281.90;2278.40;;;;;;5054473;28;20119;-77
2021/04/29 00:35:32;;;;;;;18.20;10.85;;;281.90;2278.40;;;;;;5065133;28;20094;-77
2021/04/29 00:37:58;;;;;;;16.08;10.38;;;281.80;2278.40;;;;;;5054950;28;20060;-78
2021/04/29 00:40:24;;;;;;;16.08;11.15;;;281.80;2278.40;;;;;;5056939;28;20159;-78
2021/04/29 00:42:50;;;;;;;17.13;10.57;;;281.70;2278.40;;;;;;5054243;28;20087;-78
2021/04/29 00:45:15;;;;;;;14.05;9.35;;;281.70;2278.40;;;;;;5055359;28;20017;-77
2021/04/29 00:47:41;;;;;;;21.00;11.73;;;281.60;2278.40;;;;;;5052896;28;20024;-77
2021/04/29 00:50:10;;;;;;;16.75;10.52;;;256.90;2252.80;;;;;;5054815;28;20032;-77
2021/04/29 00:52:36;;;;;;;15.65;9.60;;;256.80;2252.80;;;;;;5055084;28;20028;-77
2021/04/29 00:55:03;;;;;;;17.17;10.65;;;256.80;2252.80;;;;;;5075302;28;20107;-77
2021/04/29 00:57:28;;;;;;;13.25;10.48;;;256.80;2252.80;;;;;;5056912;28;20395;-76
2021/04/29 00:59:55;;;;;;;12.25;8.52;;;256.70;2252.80;;;;;;5069836;28;20037;-77
2021/04/29 01:02:23;;;;;;;14.93;8.98;;;256.80;2252.80;;;;;;5054342;28;20021;-76
2021/04/29 01:05:19;;;;;;;13.57;8.38;;;256.70;2252.80;;;;;;5055392;28;20389;-77
2021/04/29 01:07:57;;;;;;;12.90;9.07;;;256.70;2252.80;;;;;;4975784;28;20035;-77
2021/04/29 01:10:33;;;;;;;14.15;9.25;;;256.60;2252.80;;;;;;4972031;28;20074;-77
2021/04/29 01:13:08;;;;;;;14.15;9.68;;;256.60;2252.80;;;;;;4966873;28;20034;-77
2021/04/29 01:15:40;;;;;;;13.63;8.90;;;256.60;2252.80;;;;;;4968821;28;20035;-77
2021/04/29 01:18:07;;;;;;;13.02;8.32;;;256.50;2252.80;;;;;;4960203;28;20512;-77
2021/04/29 01:20:47;;;;;;;13.90;9.52;;;256.50;2252.80;;;;;;4956263;28;20382;-77
2021/04/29 01:23:32;;;;;;;15.65;9.85;;;256.50;2252.80;;;;;;4973778;28;20030;-77
2021/04/29 01:26:02;;;;;;;13.23;9.10;;;256.40;2252.80;;;;;;4947575;28;20059;-76
2021/04/29 01:28:29;;;;;;;11.13;8.80;;;256.40;2252.80;;;;;;4978188;28;20029;-77
2021/04/29 01:30:57;;;;;;;12.25;8.30;;;256.40;2252.80;;;;;;4984720;28;20034;-77
2021/04/29 01:33:24;;;;;;;12.55;8.50;;;256.40;2252.80;;;;;;4975208;28;20143;-78
2021/04/29 01:35:51;;;;;;;13.68;9.45;;;256.40;2252.80;;;;;;4968680;28;20031;-77
2021/04/29 01:38:17;;;;;;;13.93;9.13;;;256.30;2252.80;;;;;;4952645;28;20109;-77
2021/04/29 01:40:43;;;;;;;14.68;9.20;;;256.30;2252.80;;;;;;4973281;28;20522;-78
2021/04/29 01:43:09;;;;;;;11.65;8.07;;;256.30;2252.80;;;;;;4978149;28;20077;-78
2021/04/29 01:45:36;;;;;;;11.60;8.43;;;256.40;2252.80;;;;;;5046343;28;20072;-78
2021/04/29 01:48:02;;;;;;;14.02;7.88;;;256.40;2252.80;;;;;;5056751;28;20045;-78
2021/04/29 01:50:29;;;;;;;16.38;8.30;;;256.40;2252.80;;;;;;5055560;28;20115;-78
2021/04/29 01:52:57;;;;;;;11.90;7.63;;;256.40;2252.80;;;;;;5051306;28;20029;-78
2021/04/29 01:55:23;;;;;;;10.73;7.65;;;256.40;2252.80;;;;;;5057017;28;20503;-79
2021/04/29 01:57:52;;;;;;;12.63;8.18;;;256.40;2252.80;;;;;;5051962;28;20040;-79
2021/04/29 02:00:19;;;;;;;8.77;6.57;;;256.50;2252.80;;;;;;5053793;28;20029;-78
2021/04/29 02:02:45;;;;;;;11.82;7.47;;;256.50;2252.80;;;;;;5060434;28;20131;-78
2021/04/29 02:05:12;;;;;;;11.73;7.70;;;256.50;2252.80;;;;;;5052595;28;20535;-79
2021/04/29 02:07:38;;;;;;;11.45;8.88;;;256.70;2252.80;;;;;;5058049;28;20107;-78
2021/04/29 02:10:05;;;;;;;10.15;6.95;;;256.60;2252.80;;;;;;5054658;28;20053;-78
2021/04/29 02:12:35;;;;;;;11.13;6.95;;;256.50;2252.80;;;;;;5053062;28;20033;-78
2021/04/29 02:15:04;;;;;;;11.02;7.00;;;256.60;2252.80;;;;;;5052451;28;20051;-79
2021/04/29 02:17:49;;;;;;;9.80;8.18;;;256.60;2252.80;;;;;;5061536;28;20021;-78
2021/04/29 02:20:16;;;;;;;12.27;7.22;;;256.60;2252.80;;;;;;5050067;28;20021;-78
2021/04/29 02:22:43;;;;;;;10.73;7.97;;;256.70;2252.80;;;;;;5053755;28;20033;-79
2021/04/29 02:25:12;;;;;;;10.65;7.47;;;256.70;2252.80;;;;;;5051404;28;20036;-79
2021/04/29 02:27:39;;;;;;;11.18;7.10;;;256.70;2252.80;;;;;;5072293;28;20025;-79
2021/04/29 02:30:09;;;;;;;11.38;7.40;;;256.60;2252.80;;;;;;5052268;28;20035;-79
2021/04/29 02:32:36;;;;;;;10.70;7.45;;;256.60;2252.80;;;;;;5052893;28;20048;-79
2021/04/29 02:35:05;;;;;;;11.40;7.35;;;256.70;2252.80;;;;;;5060432;28;20029;-79
2021/04/29 02:37:31;;;;;;;10.43;6.85;;;256.70;2252.80;;;;;;5068702;28;20680;-80
2021/04/29 02:39:58;;;;;;;10.98;8.00;;;256.70;2252.80;;;;;;5052631;28;20120;-80
2021/04/29 02:42:24;;;;;;;10.60;7.28;;;256.60;2252.80;;;;;;5062675;28;20012;-79
2021/04/29 02:44:50;;;;;;;11.07;7.82;;;256.50;2252.80;;;;;;5065745;28;20094;-79
2021/04/29 02:47:16;;;;;;;10.00;6.93;;;256.50;2252.80;;;;;;5063787;28;20032;-79
2021/04/29 02:49:42;;;;;;;9.65;6.90;;;256.40;2252.80;;;;;;5053631;28;20123;-79
2021/04/29 02:52:10;;;;;;;8.55;6.55;;;256.50;2252.80;;;;;;5069909;28;20112;-79
2021/04/29 02:54:36;;;;;;;10.88;7.75;;;256.50;2252.80;;;;;;5054520;28;20044;-79
2021/04/29 02:57:03;;;;;;;10.02;7.75;;;256.50;2252.80;;;;;;5051736;28;20035;-78
2021/04/29 02:59:29;;;;;;;9.50;6.72;;;256.50;2252.80;;;;;;5050659;28;20025;-78
2021/04/29 03:01:55;;;;;;;9.95;6.80;;;256.50;2252.80;;;;;;5053055;28;20031;-79
2021/04/29 03:04:21;;;;;;;12.20;7.88;;;256.50;2252.80;;;;;;5052261;28;20039;-79
2021/04/29 03:06:47;;;;;;;9.48;7.00;;;256.50;2252.80;;;;;;5051532;28;20425;-79
2021/04/29 03:09:12;;;;;;;9.50;7.88;;;256.50;2252.80;;;;;;5052038;28;20033;-78
2021/04/29 03:11:38;;;;;;;9.75;7.78;;;256.50;2252.80;;;;;;5052531;28;20028;-78
2021/04/29 03:14:04;;;;;;;10.77;7.65;;;256.60;2252.80;;;;;;5051341;28;20387;-79
2021/04/29 03:16:30;;;;;;;9.18;7.28;;;256.60;2252.80;;;;;;5051082;28;20102;-78
2021/04/29 03:18:56;;;;;;;10.77;7.50;;;256.60;2252.80;;;;;;5051586;28;20035;-79
2021/04/29 03:21:22;;;;;;;12.77;7.70;;;256.40;2252.80;;;;;;5050464;28;20028;-79
2021/04/29 03:23:48;;;;;;;10.88;7.05;;;256.40;2252.80;;;;;;5056770;28;20471;-79
2021/04/29 03:26:13;;;;;;;10.23;7.20;;;256.30;2252.80;;;;;;5058773;28;20099;-79
2021/04/29 03:28:39;;;;;;;11.00;7.63;;;256.30;2252.80;;;;;;5056732;28;20028;-79
2021/04/29 03:31:05;;;;;;;9.85;6.90;;;256.30;2252.80;;;;;;5060426;28;20044;-79
2021/04/29 03:33:31;;;;;;;10.60;7.82;;;256.30;2252.80;;;;;;5051585;28;20048;-79
2021/04/29 03:35:56;;;;;;;12.57;8.23;;;256.20;2252.80;;;;;;5052106;28;20392;-79
2021/04/29 03:38:22;;;;;;;11.43;9.10;;;256.20;2252.80;;;;;;5051133;28;20028;-80
2021/04/29 03:40:48;;;;;;;10.68;7.40;;;256.20;2252.80;;;;;;5050666;28;20476;-77
2021/04/29 03:43:13;;;;;;;14.00;9.15;;;256.10;2252.80;;;;;;5052063;28;20095;-81
2021/04/29 03:45:39;;;;;;;11.02;8.15;;;256.10;2252.80;;;;;;5053169;28;20079;-81
2021/04/29 03:48:05;;;;;;;12.00;8.65;;;256.20;2252.80;;;;;;5050934;28;20021;-80
2021/04/29 03:50:31;;;;;;;13.95;9.25;;;256.20;2252.80;;;;;;5067120;28;20040;-80
2021/04/29 03:52:57;;;;;;;13.98;8.20;;;256.20;2252.80;;;;;;5057070;28;20033;-82
2021/04/29 03:55:23;;;;;;;12.27;8.68;;;256.20;2252.80;;;;;;5060315;28;20029;-80
2021/04/29 03:57:49;;;;;;;12.02;9.00;;;256.30;2252.80;;;;;;5053066;28;20029;-81
2021/04/29 04:00:15;;;;;;;12.00;9.30;;;256.30;2252.80;;;;;;5054560;28;20028;-81
2021/04/29 04:02:42;;;;;;;11.05;7.55;;;256.30;2252.80;;;;;;5069956;28;20086;-80
2021/04/29 04:05:08;;;;;;;10.90;7.65;;;256.40;2252.80;;;;;;5057935;28;20036;-79
2021/04/29 04:07:34;;;;;;;13.40;10.15;;;256.40;2252.80;;;;;;5054578;28;20033;-79
2021/04/29 04:10:00;;;;;;;12.77;9.25;;;256.50;2252.80;;;;;;5071721;28;20017;-79
2021/04/29 04:12:25;;;;;;;13.80;8.50;;;256.60;2252.80;;;;;;5054576;28;20028;-80
2021/04/29 04:14:51;;;;;;;15.05;9.10;;;256.70;2252.80;;;;;;5054903;28;20021;-79
2021/04/29 04:17:17;;;;;;;13.20;8.75;;;256.70;2252.80;;;;;;5054893;28;20032;-80
2021/04/29 04:19:42;;;;;;;11.77;9.05;;;256.80;2252.80;;;;;;5054407;28;20037;-81
2021/04/29 04:22:08;;;;;;;16.25;10.63;;;256.90;2252.80;;;;;;5056115;28;20087;-81
2021/04/29 04:24:34;;;;;;;35.17;10.20;;;281.60;2278.40;;;;;;5059598;28;20460;-80
2021/04/29 04:26:59;;;;;;;14.40;10.50;;;281.60;2278.40;;;;;;5058055;28;20032;-81
2021/04/29 04:29:25;;;;;;;12.13;8.57;;;281.60;2278.40;;;;;;5053384;28;20430;-81
2021/04/29 04:31:51;;;;;;;11.15;8.20;;;281.60;2278.40;;;;;;5055678;28;20053;-81
2021/04/29 04:34:17;;;;;;;12.57;8.48;;;281.70;2278.40;;;;;;5055536;28;20032;-80
2021/04/29 04:36:42;;;;;;;14.07;9.50;;;281.70;2278.40;;;;;;5054543;28;20470;-80
2021/04/29 04:39:08;;;;;;;11.98;8.75;;;281.70;2278.40;;;;;;5054220;28;20025;-80
2021/04/29 04:41:34;;;;;;;13.65;9.48;;;281.80;2278.40;;;;;;5055411;28;20032;-79
2021/04/29 04:44:03;;;;;;;14.52;9.60;;;281.90;2278.40;;;;;;5054397;28;20040;-80
2021/04/29 04:46:28;;;;;;;13.40;9.30;;;282.00;2278.40;;;;;;5071372;28;20032;-80
2021/04/29 04:48:54;;;;;;;11.73;8.50;;;282.10;2278.40;;;;;;5054438;28;20022;-80
2021/04/29 04:51:20;;;;;;;13.48;9.27;;;282.10;2278.40;;;;;;5053969;28;20021;-81
2021/04/29 04:53:46;;;;;;;13.13;9.80;;;282.20;2278.40;;;;;;5055082;28;20044;-80
2021/04/29 04:56:11;;;;;;;14.60;9.18;;;282.20;2278.40;;;;;;5048025;28;20036;-80
2021/04/29 04:58:37;;;;;;;14.95;10.07;;;282.30;2278.40;;;;;;5053791;28;20116;-80
2021/04/29 05:01:03;;;;;;;14.15;10.23;;;282.40;2278.40;;;;;;5053443;28;20082;-81
2021/04/29 05:03:29;;;;;;;15.65;10.43;;;282.40;2278.40;;;;;;5055393;28;20120;-80
2021/04/29 05:05:55;;;;;;;13.13;8.95;;;282.50;2278.40;;;;;;5055009;28;20760;-81
2021/04/29 05:08:20;;;;;;;14.82;11.35;;;282.40;2278.40;;;;;;5053906;28;20032;-81
2021/04/29 05:10:46;;;;;;;15.18;9.90;;;307.20;2304.00;;;;;;5055843;28;20379;-80
2021/04/29 05:13:12;;;;;;;13.52;9.85;;;307.30;2304.00;;;;;;5052655;28;20051;-80
2021/04/29 05:15:38;;;;;;;15.60;10.77;;;307.40;2304.00;;;;;;5053487;28;20385;-81
2021/04/29 05:18:04;;;;;;;15.35;10.00;;;307.60;2304.00;;;;;;5054603;28;20017;-81
2021/04/29 05:20:31;;;;;;;15.10;10.63;;;307.70;2304.00;;;;;;5054517;28;20685;-80
2021/04/29 05:22:57;;;;;;;14.10;10.50;;;307.80;2304.00;;;;;;5054777;28;20476;-80
2021/04/29 05:25:23;;;;;;;12.20;9.43;;;307.80;2304.00;;;;;;5057445;28;20492;-80
2021/04/29 05:27:53;;;;;;;13.43;9.63;;;307.90;2304.00;;;;;;5053248;28;20064;-79
2021/04/29 05:30:20;;;;;;;11.43;8.45;;;308.00;2304.00;;;;;;5069557;28;20071;-80
2021/04/29 05:32:49;;;;;;;13.70;9.23;;;308.00;2304.00;;;;;;5072249;28;20032;-80
2021/04/29 05:35:15;;;;;;;12.07;9.18;;;308.10;2304.00;;;;;;5055522;28;20033;-81
2021/04/29 05:37:41;;;;;;;15.35;10.70;;;308.10;2304.00;;;;;;5053266;28;20391;-80
2021/04/29 05:40:07;;;;;;;11.65;9.02;;;308.10;2304.00;;;;;;5052778;28;20040;-81
2021/04/29 05:42:34;;;;;;;13.55;8.95;;;308.00;2304.00;;;;;;5054364;28;20116;-81
2021/04/29 05:45:00;;;;;;;13.30;9.20;;;332.80;2329.60;;;;;;5053514;28;20031;-82
2021/04/29 05:47:26;;;;;;;12.27;9.18;;;308.10;2304.00;;;;;;5045946;28;20408;-82
2021/04/29 05:49:51;;;;;;;14.38;10.02;;;332.90;2329.60;;;;;;5054179;28;20025;-81
2021/04/29 05:52:17;;;;;;;12.13;9.32;;;333.00;2329.60;;;;;;5070397;28;20028;-81
2021/04/29 05:54:43;;;;;;;13.73;9.60;;;333.20;2329.60;;;;;;5047713;28;20033;-81
2021/04/29 05:57:08;;;;;;;11.48;9.13;;;333.30;2304.00;;;;;;5054233;28;20565;-81
2021/04/29 05:59:34;;;;;;;12.25;8.88;;;333.50;2304.00;;;;;;5054449;28;20388;-82
2021/04/29 06:02:00;;;;;;;12.40;9.68;;;333.40;2304.00;;;;;;5052674;28;20040;-82
2021/04/29 06:04:26;;;;;;;14.82;10.30;;;333.40;2278.40;;;;;;5054519;28;20029;-82
2021/04/29 06:06:51;;;;;;;11.00;8.98;;;333.40;2304.00;;;;;;5060996;28;20491;-82
2021/04/29 06:09:18;;;;;;;12.20;9.27;;;333.40;2304.00;;;;;;5051886;28;20107;-81
2021/04/29 06:11:46;;;;;;;12.63;9.80;;;333.60;2252.80;;;;;;5039657;28;20105;-81
2021/04/29 06:14:12;;;;;;;13.80;9.93;;;333.60;2278.40;;;;;;5052610;28;20024;-81
2021/04/29 06:16:39;;;;;;;12.02;9.40;;;358.40;2278.40;;;;;;5069041;28;20111;-81
2021/04/29 06:19:05;;;;;;;11.63;9.25;;;358.70;2252.80;;;;;;5046179;28;20112;-81
2021/04/29 06:21:31;;;;;;;10.70;8.20;;;358.90;2201.60;;;;;;5068388;28;20037;-82
2021/04/29 06:23:57;;;;;;;12.70;9.23;;;358.90;2201.60;;;;;;5053609;28;20029;-82
2021/04/29 06:26:22;;;;;;;13.88;8.63;;;358.90;2227.20;;;;;;5053722;28;20033;-82
2021/04/29 06:28:48;;;;;;;11.63;9.02;;;358.90;2176.00;;;;;;5053173;28;20070;-81
2021/04/29 06:31:14;;;;;;;9.93;7.18;;;359.00;2176.00;;;;;;5052403;28;20125;-83
2021/04/29 06:33:40;;;;;;;10.63;8.00;;;359.00;2150.40;;;;;;5053570;28;20087;-81
2021/04/29 06:36:06;;;;;;;11.82;8.88;;;359.20;2150.40;;;;;;5069188;28;20056;-81
2021/04/29 06:38:34;;;;;;;12.18;8.00;;;359.30;2150.40;;;;;;5052207;28;20549;-82
2021/04/29 06:41:01;;;;;;;11.55;7.95;;;359.10;2150.40;;;;;;5052412;28;20025;-81
2021/04/29 06:43:27;;;;;;;10.45;7.53;;;359.30;2150.40;;;;;;5051614;28;20033;-81
2021/04/29 06:45:53;;;;;;;10.60;8.13;;;359.30;2124.80;;;;;;5052305;28;20369;-81
2021/04/29 06:48:20;;;;;;;11.27;7.95;;;384.00;2150.40;;;;;;5053048;28;20044;-81
2021/04/29 06:50:46;;;;;;;11.60;8.98;;;384.30;2124.80;;;;;;5053138;28;20021;-81
2021/04/29 06:53:12;;;;;;;10.57;7.85;;;384.30;2124.80;;;;;;5053260;28;20068;-81
2021/04/29 06:55:37;;;;;;;12.93;8.77;;;384.30;2124.80;;;;;;5051327;28;20043;-81
2021/04/29 06:58:03;;;;;;;9.32;7.63;;;384.30;2124.80;;;;;;5051700;28;20056;-80
2021/04/29 07:00:29;;;;;;;11.48;8.93;;;409.60;2073.60;;;;;;5053035;28;20041;-80
2021/04/29 07:02:56;;;;;;;10.50;8.60;;;409.60;2073.60;;;;;;5052810;28;20036;-81
2021/04/29 07:05:23;;;;;;;11.15;8.48;;;409.70;2073.60;;;;;;5051679;28;20048;-80
2021/04/29 07:07:52;;;;;;;10.40;7.85;;;410.00;2048.00;;;;;;5053033;28;20013;-82
2021/04/29 07:10:18;;;;;;;12.38;8.18;;;410.20;1996.80;;;;;;5039566;28;20102;-83
2021/04/29 07:12:44;;;;;;;12.85;9.02;;;435.20;1996.80;;;;;;5052019;28;20091;-82
2021/04/29 07:15:12;;;;;;;11.27;7.97;;;435.30;1996.80;;;;;;5051105;28;20468;-82
2021/04/29 07:17:38;;;;;;;11.10;8.75;;;435.20;1996.80;;;;;;5052419;28;20025;-82
2021/04/29 07:20:05;;;;;;;11.43;8.48;;;435.20;1971.20;;;;;;5053100;28;20032;-83
2021/04/29 07:22:31;;;;;;;10.25;8.98;;;435.20;1996.80;;;;;;5068246;28;20025;-82
2021/04/29 07:24:57;;;;;;;11.40;9.35;;;435.70;1945.60;;;;;;5053017;28;20504;-82
2021/04/29 07:27:23;;;;;;;13.15;10.15;;;435.60;1945.60;;;;;;5052517;28;20056;-82
2021/04/29 07:29:48;;;;;;;10.48;8.73;;;435.90;1945.60;;;;;;5051747;28;20028;-82
2021/04/29 07:32:14;;;;;;;12.98;7.85;;;436.10;1920.00;;;;;;5052268;28;20045;-82
2021/04/29 07:34:40;;;;;;;14.27;8.98;;;435.90;1920.00;;;;;;5048187;28;20143;-83
2021/04/29 07:37:06;;;;;;;12.85;9.07;;;436.00;1920.00;;;;;;5055154;28;20033;-83
2021/04/29 07:39:32;;;;;;;11.90;7.68;;;436.00;1920.00;;;;;;5041633;28;20036;-84
2021/04/29 07:41:58;;;;;;;9.70;8.15;;;460.80;1920.00;;;;;;5039249;28;20041;-83
2021/04/29 07:44:24;;;;;;;11.57;8.02;;;461.10;1920.00;;;;;;5049961;28;20029;-85
2021/04/29 07:46:49;;;;;;;10.30;8.05;;;461.10;1920.00;;;;;;5047565;28;20028;-84
2021/04/29 07:49:15;;;;;;;11.93;8.75;;;461.40;1868.80;;;;;;5051139;28;20025;-83
2021/04/29 07:51:41;;;;;;;10.23;8.30;;;461.50;1868.80;;;;;;5052298;28;20387;-83
2021/04/29 07:54:07;;;;;;;11.23;8.93;;;461.60;1868.80;;;;;;5051077;28;20045;-82
2021/04/29 07:56:33;;;;;;;10.75;8.38;;;461.60;1868.80;;;;;;5051255;28;20025;-82
2021/04/29 07:59:00;;;;;;;9.18;7.72;;;486.70;1843.20;;;;;;5055475;28;20114;-83
2021/04/29 08:01:26;;;;;;;11.57;8.75;;;487.10;1792.00;;;;;;5051089;28;20128;-83
2021/04/29 08:03:51;;;;;;;16.35;10.70;;;486.90;1766.40;;;;;;5069475;28;20170;-84
2021/04/29 08:06:17;;;;;;;12.05;9.45;;;487.00;1792.00;;;;;;5051376;28;20028;-82
2021/04/29 08:08:43;;;;;;;10.07;7.72;;;487.10;1766.40;;;;;;5051445;28;20115;-82
2021/04/29 08:11:12;;;;;;;13.10;8.23;;;487.30;1766.40;;;;;;5050800;28;20037;-85
2021/04/29 08:13:38;;;;;;;11.68;8.82;;;487.30;1740.80;;;;;;5046066;28;20034;-84
2021/04/29 08:16:04;;;;;;;10.80;8.45;;;512.00;1715.20;;;;;;5047719;28;20029;-84
2021/04/29 08:18:30;;;;;;;9.05;7.43;;;512.20;1740.80;;;;;;5052882;28;20357;-84
2021/04/29 08:20:56;;;;;;;13.73;8.80;;;512.50;1715.20;;;;;;5045103;28;20036;-84
2021/04/29 08:23:22;;;;;;;15.30;10.05;;;512.40;1740.80;;;;;;5051170;28;20025;-83
2021/04/29 08:25:47;;;;;;;13.95;8.70;;;512.40;1740.80;;;;;;5051590;28;20033;-84
2021/04/29 08:28:13;;;;;;;12.07;8.85;;;512.30;1715.20;;;;;;5053306;28;20083;-84
2021/04/29 08:30:39;;;;;;;10.10;7.72;;;512.50;1715.20;;;;;;5043805;28;20036;-85
2021/04/29 08:33:05;;;;;;;10.25;8.48;;;512.50;1715.20;;;;;;5052527;28;20040;-83
2021/04/29 08:35:31;;;;;;;9.65;7.50;;;512.50;1689.60;;;;;;5042132;28;20044;-83
2021/04/29 08:37:56;;;;;;;12.57;9.60;;;512.60;1689.60;;;;;;5050536;28;20029;-84
2021/04/29 08:40:24;;;;;;;15.27;8.68;;;512.70;1689.60;;;;;;5053295;28;20040;-84
2021/04/29 08:42:50;;;;;;;11.00;9.38;;;537.80;1689.60;;;;;;5041770;28;20404;-83
2021/04/29 08:45:16;;;;;;;10.23;8.50;;;537.90;1689.60;;;;;;5053478;28;20036;-82
2021/04/29 08:47:47;;;;;;;11.77;8.25;;;538.10;1664.00;;;;;;5054298;28;20128;-82
2021/04/29 08:50:13;;;;;;;10.40;7.15;;;538.30;1638.40;;;;;;5072074;28;20033;-84
2021/04/29 08:52:39;;;;;;;9.65;7.85;;;538.40;1638.40;;;;;;5052053;28;20066;-83
2021/04/29 08:55:09;;;;;;;8.00;7.20;;;563.20;1638.40;;;;;;5053640;28;20476;-82
2021/04/29 08:57:34;;;;;;;13.27;8.57;;;563.50;1612.80;;;;;;5055728;28;20036;-83
2021/04/29 09:00:03;;;;;;;10.30;7.57;;;563.40;1612.80;;;;;;5054152;28;20025;-84
2021/04/29 09:02:36;;;;;;;10.52;6.78;;;563.40;1612.80;;;;;;5055665;28;20029;-84
2021/04/29 09:05:30;;;;;;;12.60;6.60;;;563.60;1612.80;;;;;;5047870;28;20044;-84
2021/04/29 09:08:09;;;;;;;9.40;7.70;;;563.70;1587.20;;;;;;5043339;28;20029;-84
2021/04/29 09:10:37;;;;;;;11.57;7.32;;;563.80;1587.20;;;;;;5053623;28;20036;-83
2021/04/29 09:13:17;;;;;;;12.35;7.20;;;589.00;1536.00;;;;;;5054154;28;20021;-83
2021/04/29 09:15:47;;;;;;;9.85;7.95;;;589.30;1510.40;;;;;;5063949;28;20442;-84
2021/04/29 09:18:18;;;;;;;11.40;8.45;;;589.30;1484.80;;;;;;5074607;28;20074;-84
2021/04/29 09:20:51;;;;;;;12.20;7.75;;;589.70;1484.80;;;;;;5054619;28;20029;-84
2021/04/29 09:23:20;;;;;;;10.60;7.50;;;589.60;1484.80;;;;;;5053234;28;20028;-83
2021/04/29 09:26:11;;;;;;;10.32;7.47;;;614.50;1433.60;;;;;;5044628;28;20021;-83
2021/04/29 09:28:36;;;;;;;11.73;8.27;;;615.10;1408.00;;;;;;5069397;28;20036;-82
2021/04/29 09:31:16;;;;;;;15.10;8.68;;;640.00;1408.00;;;;;;5053233;28;20041;-83
2021/04/29 09:33:52;;;;;;;12.98;8.05;;;640.00;1408.00;;;;;;5068068;28;20403;-83
2021/04/29 09:36:31;;;;;;;13.82;9.18;;;640.40;1382.40;;;;;;5049401;28;20029;-83
2021/04/29 09:39:12;;;;;;;9.48;7.60;;;640.50;1382.40;;;;;;5047023;28;20040;-83
2021/04/29 09:41:45;;;;;;;16.80;10.23;;;665.60;1331.20;;;;;;5047081;28;20029;-83
2021/04/29 09:44:20;;;;;;;9.43;7.40;;;665.90;1305.60;;;;;;5047008;28;20553;-85
2021/04/29 09:46:52;;;;;;;8.18;6.70;;;665.90;1305.60;;;;;;5053041;28;20487;-83
2021/04/29 09:49:44;;;;;;;11.77;8.45;;;665.80;1331.20;;;;;;5053621;28;20025;-83
2021/04/29 09:52:21;;;;;;;11.35;7.90;;;666.10;1305.60;;;;;;5044224;28;20071;-83
2021/04/29 09:54:48;;;;;;;11.07;7.53;;;691.20;1280.00;;;;;;5044235;28;20037;-82
2021/04/29 09:57:20;;;;;;;12.15;7.93;;;666.50;1254.40;;;;;;5047527;28;20032;-85
2021/04/29 09:59:54;;;;;;;9.25;7.35;;;666.40;1280.00;;;;;;5068922;28;20032;-84
2021/04/29 10:02:19;;;;;;;13.52;9.38;;;691.50;1254.40;;;;;;5053793;28;20025;-85
2021/04/29 10:04:46;;;;;;;8.00;5.60;;;691.70;1254.40;;;;;;5053814;28;20036;-86
2021/04/29 10:07:13;;;;;;;14.25;8.77;;;692.10;1203.20;;;;;;5052827;28;20077;-84
2021/04/29 10:09:41;;;;;;;9.77;6.85;;;717.00;1228.80;;;;;;5052635;28;20044;-86
2021/04/29 10:12:09;;;;;;;8.25;6.07;;;717.30;1203.20;;;;;;5039528;28;20504;-85
2021/04/29 10:14:40;;;;;;;7.80;5.97;;;717.60;1177.60;;;;;;5053306;28;20035;-86
2021/04/29 10:17:09;;;;;;;9.38;6.03;;;742.40;1203.20;;;;;;5067116;28;20032;-84
2021/04/29 10:19:41;;;;;;;8.75;6.47;;;717.40;1203.20;;;;;;5054957;28;20048;-84
2021/04/29 10:22:07;;;;;;;7.47;5.80;;;742.60;1152.00;;;;;;5050336;28;20029;-86
2021/04/29 10:24:39;;;;;;;8.55;6.55;;;742.40;1177.60;;;;;;5046271;28;20511;-85
2021/04/29 10:27:07;;;;;;;9.15;6.13;;;742.70;1177.60;;;;;;5045716;28;20033;-85
2021/04/29 10:29:33;;;;;;;8.52;6.05;;;743.00;1152.00;;;;;;5054005;28;20039;-83
2021/04/29 10:32:01;;;;;;;8.35;5.25;;;742.70;1152.00;;;;;;5051846;28;20551;-86
2021/04/29 10:34:49;;;;;;;8.88;5.65;;;743.00;1126.40;;;;;;5051867;28;20480;-86
2021/04/29 10:37:30;;;;;;;7.78;5.97;;;742.70;1203.20;;;;;;5049200;28;20502;-86
2021/04/29 10:40:03;;;;;;;9.80;5.38;;;716.80;1228.80;;;;;;5046235;28;20032;-85
2021/04/29 10:42:31;;;;;;;6.68;4.53;;;742.40;1177.60;;;;;;5061972;28;20034;-86
2021/04/29 10:45:05;;;;;;;9.50;5.00;;;743.00;1126.40;;;;;;5052418;28;20056;-86
2021/04/29 10:47:32;;;;;;;7.60;5.35;;;768.20;1075.20;;;;;;5052365;28;20029;-85
2021/04/29 10:50:14;;;;;;;7.32;5.30;;;743.00;1100.80;;;;;;5052869;28;20048;-85
2021/04/29 10:52:48;;;;;;;10.10;6.50;;;768.00;1075.20;;;;;;5054445;28;20032;-86
2021/04/29 10:55:35;;;;;;;8.23;5.05;;;768.50;1075.20;;;;;;5062838;28;20480;-84
2021/04/29 10:58:01;;;;;;;7.70;5.30;;;768.10;1100.80;;;;;;5052657;28;20668;-84
2021/04/29 11:00:29;;;;;;;7.28;5.72;;;793.60;1075.20;;;;;;5053843;28;20112;-83
2021/04/29 11:03:00;;;;;;;6.97;4.75;;;768.40;1075.20;;;;;;5051156;28;20029;-81
2021/04/29 11:05:28;;;;;;;7.22;5.13;;;768.10;1100.80;;;;;;5049922;28;20025;-90
2021/04/29 11:07:54;;;;;;;5.20;3.30;;;768.80;1049.60;;;;;;5049571;28;20025;-87
2021/04/29 11:10:25;;;;;;;7.70;4.43;;;793.60;1049.60;;;;;;5051445;28;20036;-90
2021/04/29 11:12:55;;;;;;;5.10;3.97;;;794.00;1024.00;;;;;;5055206;28;20047;-89
2021/04/29 11:15:38;;;;;;;8.32;4.32;;;794.30;972.80;;;;;;5046952;28;20176;-90
2021/04/29 11:18:11;;;;;;;6.32;3.50;;;819.20;947.20;;;;;;5053049;28;20025;-91
2021/04/29 11:20:45;;;;;;;5.88;3.05;;;819.20;947.20;;;;;;5053192;28;20022;-89
2021/04/29 11:23:11;;;;;;;6.40;3.17;;;819.30;947.20;;;;;;5060591;28;20028;-89
2021/04/29 11:25:38;;;;;;;5.65;3.20;;;845.00;921.60;;;;;;5053243;28;20036;-88
2021/04/29 11:28:06;;;;;;;4.78;3.42;;;845.50;896.00;;;;;;5055842;28;20395;-88
2021/04/29 11:30:32;;;;;;;5.25;2.80;;;819.40;947.20;;;;;;5052945;28;20044;-90
2021/04/29 11:33:01;;;;;;;5.50;2.88;;;819.40;921.60;;;;;;5053138;28;20565;-89
2021/04/29 11:35:33;;;;;;;6.78;3.55;;;794.40;921.60;;;;;;5053196;28;20037;-88
2021/04/29 11:37:59;;;;;;;5.70;3.67;;;793.80;972.80;;;;;;5053672;28;20032;-89
2021/04/29 11:40:28;;;;;;;5.85;2.97;;;819.80;896.00;;;;;;5053648;28;20102;-89
2021/04/29 11:42:56;;;;;;;8.57;3.30;;;820.00;896.00;;;;;;5036622;28;20032;-90
2021/04/29 11:45:30;;;;;;;6.82;4.22;;;845.00;896.00;;;;;;5051333;28;20071;-89
2021/04/29 11:48:02;;;;;;;6.22;3.42;;;845.50;896.00;;;;;;5061773;28;20455;-91
2021/04/29 11:50:51;;;;;;;5.85;3.58;;;845.40;896.00;;;;;;5054939;28;20021;-91
2021/04/29 11:53:19;;;;;;;4.78;3.83;;;819.70;921.60;;;;;;5055698;28;20035;-90
2021/04/29 11:55:46;;;;;;;5.95;3.63;;;845.00;921.60;;;;;;5054770;28;20025;-91
2021/04/29 11:58:14;;;;;;;7.32;3.85;;;845.00;947.20;;;;;;5054163;28;20082;-91
2021/04/29 12:00:45;;;;;;;4.30;3.03;;;845.40;896.00;;;;;;5054718;28;20025;-91
2021/04/29 12:03:12;;;;;;;5.93;4.03;;;870.40;870.40;;;;;;5054099;28;20394;-90
2021/04/29 12:05:39;;;;;;;5.15;3.50;;;870.90;870.40;;;;;;5054347;28;20103;-91
2021/04/29 12:08:09;;;;;;;4.20;3.30;;;871.10;870.40;;;;;;5055028;28;20021;-92
2021/04/29 12:10:56;;;;;;;5.65;3.05;;;871.30;844.80;;;;;;5055478;28;20625;-93
2021/04/29 12:13:36;;;;;;;5.32;2.45;;;870.80;870.40;;;;;;5071289;28;20391;-92
2021/04/29 12:16:32;;;;;;;4.45;3.40;;;896.10;819.20;;;;;;5056067;28;20021;-92